Time;durP1;ratioP1;P1;durP2;ratioP2;P2;SDS_P1;SDS_P2;PMS_P1;PMS_P2;Temp;Humidity;BMP_temperature;BMP_pressure;BME280_temperature;BME280_humidity;BME280_pressure;Samples;Min_cycle;Max_cycle;Signal;HPM_P1;HPM_P2
2023/12/21 00:01:34;;;;;;;;;;;;;;;;;;4989842;28;19922;-71
2023/12/21 00:04:00;;;;;;;;;;;;;;;;;;4975006;28;19926;-71
2023/12/21 00:06:26;;;;;;;;;;;;;;;;;;4971828;28;19926;-71
2023/12/21 00:08:52;;;;;;;;;;;;;;;;;;4984579;28;20379;-70
2023/12/21 00:11:17;;;;;;;;;;;;;;;;;;4988128;28;19930;-71
2023/12/21 00:13:43;;;;;;;;;;;;;;;;;;4988009;28;19930;-70
2023/12/21 00:16:09;;;;;;;;;;;;;;;;;;4987200;28;19934;-72
2023/12/21 00:18:35;;;;;;;;;;;;;;;;;;4956071;28;19968;-71
2023/12/21 00:21:02;;;;;;;;;;;;;;;;;;4982326;28;19956;-71
2023/12/21 00:23:28;;;;;;;;;;;;;;;;;;4987916;28;19921;-70
2023/12/21 00:25:53;;;;;;;;;;;;;;;;;;4983240;28;19930;-70
2023/12/21 00:28:19;;;;;;;;;;;;;;;;;;4986241;28;19933;-70
2023/12/21 00:30:45;;;;;;;;;;;;;;;;;;4989938;28;19949;-70
2023/12/21 00:33:11;;;;;;;;;;;;;;;;;;4988148;28;19969;-71
2023/12/21 00:35:37;;;;;;;;;;;;;;;;;;4965658;28;20376;-71
2023/12/21 00:38:03;;;;;;;;;;;;;;;;;;4986865;28;19929;-70
2023/12/21 00:40:29;;;;;;;;;;;;;;;;;;4985768;28;20343;-71
2023/12/21 00:42:55;;;;;;;;;;;;;;;;;;4990647;28;20643;-70
2023/12/21 00:45:21;;;;;;;;;;;;;;;;;;4985123;28;19926;-70
2023/12/21 00:47:48;;;;;;;;;;;;;;;;;;4971164;28;19925;-71
2023/12/21 00:50:14;;;;;;;;;;;;;;;;;;4988969;28;19965;-71
2023/12/21 00:52:40;;;;;;;;;;;;;;;;;;4987096;28;19961;-71
2023/12/21 00:55:06;;;;;;;;;;;;;;;;;;5007705;23;19932;-68
2023/12/21 00:57:32;;;;;;;;;;;;;;;;;;5000114;28;19933;-69
2023/12/21 00:59:58;;;;;;;;;;;;;;;;;;4999388;28;19932;-69
2023/12/21 01:02:24;;;;;;;;;;;;;;;;;;5002076;28;19953;-69
2023/12/21 01:04:50;;;;;;;;;;;;;;;;;;4997902;28;20375;-68
2023/12/21 01:07:16;;;;;;;;;;;;;;;;;;5005432;28;19929;-68
2023/12/21 01:09:42;;;;;;;;;;;;;;;;;;5004087;28;19933;-69
2023/12/21 01:12:07;;;;;;;;;;;;;;;;;;5003346;28;19922;-69
2023/12/21 01:14:33;;;;;;;;;;;;;;;;;;5005214;28;19971;-68
2023/12/21 01:16:59;;;;;;;;;;;;;;;;;;5010028;28;19925;-68
2023/12/21 01:19:26;;;;;;;;;;;;;;;;;;5007535;28;19925;-69
2023/12/21 01:21:52;;;;;;;;;;;;;;;;;;5018149;28;19921;-68
2023/12/21 01:24:18;;;;;;;;;;;;;;;;;;5010269;28;20063;-68
2023/12/21 01:26:44;;;;;;;;;;;;;;;;;;5011006;28;20375;-68
2023/12/21 01:29:10;;;;;;;;;;;;;;;;;;5019818;28;19922;-69
2023/12/21 01:31:36;;;;;;;;;;;;;;;;;;5010263;28;19929;-68
2023/12/21 01:34:02;;;;;;;;;;;;;;;;;;5018100;28;19947;-68
2023/12/21 01:36:28;;;;;;;;;;;;;;;;;;5012434;28;20367;-69
2023/12/21 01:38:54;;;;;;;;;;;;;;;;;;5011306;28;19930;-70
2023/12/21 01:41:20;;;;;;;;;;;;;;;;;;4990900;28;20011;-69
2023/12/21 01:43:46;;;;;;;;;;;;;;;;;;5016738;28;20004;-69
2023/12/21 01:46:12;;;;;;;;;;;;;;;;;;5014605;28;20021;-70
2023/12/21 01:48:38;;;;;;;;;;;;;;;;;;5018858;28;19922;-68
2023/12/21 01:51:04;;;;;;;;;;;;;;;;;;5016889;28;20016;-68
2023/12/21 01:53:30;;;;;;;;;;;;;;;;;;5011677;28;19933;-68
2023/12/21 01:55:56;;;;;;;;;;;;;;;;;;5005604;28;19934;-70
2023/12/21 01:58:22;;;;;;;;;;;;;;;;;;5009517;28;19925;-69
2023/12/21 02:00:48;;;;;;;;;;;;;;;;;;5012711;28;19982;-69
2023/12/21 02:03:14;;;;;;;;;;;;;;;;;;5026303;28;20003;-69
2023/12/21 02:05:40;;;;;;;;;;;;;;;;;;5021074;28;19929;-69
2023/12/21 02:08:06;;;;;;;;;;;;;;;;;;5029069;28;20470;-69
2023/12/21 02:10:32;;;;;;;;;;;;;;;;;;5032437;28;20414;-69
2023/12/21 02:12:58;;;;;;;;;;;;;;;;;;5008373;28;19921;-68
2023/12/21 02:15:24;;;;;;;;;;;;;;;;;;5019288;28;20048;-68
2023/12/21 02:17:50;;;;;;;;;;;;;;;;;;5022746;28;19925;-69
2023/12/21 02:20:16;;;;;;;;;;;;;;;;;;5013986;28;19921;-68
2023/12/21 02:22:42;;;;;;;;;;;;;;;;;;5016217;28;19925;-67
2023/12/21 02:25:08;;;;;;;;;;;;;;;;;;5015622;28;20504;-69
2023/12/21 02:27:35;;;;;;;;;;;;;;;;;;5004245;28;19929;-69
2023/12/21 02:30:01;;;;;;;;;;;;;;;;;;5014463;28;20295;-69
2023/12/21 02:32:27;;;;;;;;;;;;;;;;;;5012957;28;19929;-70
2023/12/21 02:34:53;;;;;;;;;;;;;;;;;;5012825;28;20411;-69
2023/12/21 02:37:19;;;;;;;;;;;;;;;;;;5013633;28;19921;-69
2023/12/21 02:39:45;;;;;;;;;;;;;;;;;;5005998;28;19944;-69
2023/12/21 02:42:11;;;;;;;;;;;;;;;;;;5012429;28;19925;-69
2023/12/21 02:44:37;;;;;;;;;;;;;;;;;;5013719;28;20331;-69
2023/12/21 02:47:03;;;;;;;;;;;;;;;;;;5018375;28;20012;-68
2023/12/21 02:49:28;;;;;;;;;;;;;;;;;;5015883;28;19934;-68
2023/12/21 02:51:55;;;;;;;;;;;;;;;;;;5013755;28;19926;-68
2023/12/21 02:54:21;;;;;;;;;;;;;;;;;;5009441;28;19922;-68
2023/12/21 02:56:46;;;;;;;;;;;;;;;;;;5009350;28;20305;-68
2023/12/21 02:59:12;;;;;;;;;;;;;;;;;;5008501;28;19973;-69
2023/12/21 03:01:38;;;;;;;;;;;;;;;;;;5002238;28;19921;-68
2023/12/21 03:04:04;;;;;;;;;;;;;;;;;;5016223;28;19925;-69
2023/12/21 03:06:30;;;;;;;;;;;;;;;;;;5014455;28;19979;-71
2023/12/21 03:08:56;;;;;;;;;;;;;;;;;;5005419;28;20017;-68
2023/12/21 03:11:22;;;;;;;;;;;;;;;;;;5008518;28;19922;-68
2023/12/21 03:13:48;;;;;;;;;;;;;;;;;;5016099;28;20563;-70
2023/12/21 03:16:14;;;;;;;;;;;;;;;;;;5012033;28;19925;-69
2023/12/21 03:18:40;;;;;;;;;;;;;;;;;;5011288;28;19921;-68
2023/12/21 03:21:05;;;;;;;;;;;;;;;;;;5010296;28;19922;-69
2023/12/21 03:23:34;;;;;;;;;;;;;;;;;;5018365;28;20326;-69
2023/12/21 03:25:59;;;;;;;;;;;;;;;;;;5009662;28;20101;-69
2023/12/21 03:28:25;;;;;;;;;;;;;;;;;;5008372;28;20011;-69
2023/12/21 03:30:51;;;;;;;;;;;;;;;;;;5008463;28;19925;-69
2023/12/21 03:33:17;;;;;;;;;;;;;;;;;;5015310;28;19925;-69
2023/12/21 03:35:43;;;;;;;;;;;;;;;;;;5008710;28;19936;-69
2023/12/21 03:38:09;;;;;;;;;;;;;;;;;;5012453;28;19921;-69
2023/12/21 03:40:35;;;;;;;;;;;;;;;;;;5005687;28;19925;-68
2023/12/21 03:43:02;;;;;;;;;;;;;;;;;;5012328;28;19995;-68
2023/12/21 03:45:29;;;;;;;;;;;;;;;;;;5005963;28;19929;-68
2023/12/21 03:47:55;;;;;;;;;;;;;;;;;;5013183;28;20040;-68
2023/12/21 03:50:20;;;;;;;;;;;;;;;;;;5008635;28;20017;-69
2023/12/21 03:52:46;;;;;;;;;;;;;;;;;;5013200;28;20056;-69
2023/12/21 03:55:12;;;;;;;;;;;;;;;;;;5004050;28;20421;-69
2023/12/21 03:57:39;;;;;;;;;;;;;;;;;;5012004;28;19926;-69
2023/12/21 04:00:05;;;;;;;;;;;;;;;;;;5006873;28;22097;-69
2023/12/21 04:02:32;;;;;;;;;;;;;;;;;;5008574;28;19936;-69
2023/12/21 04:04:58;;;;;;;;;;;;;;;;;;5013817;28;20370;-68
2023/12/21 04:07:24;;;;;;;;;;;;;;;;;;5010039;28;19940;-68
2023/12/21 04:09:50;;;;;;;;;;;;;;;;;;5009985;28;19921;-68
2023/12/21 04:12:16;;;;;;;;;;;;;;;;;;5007043;28;19928;-67
2023/12/21 04:14:42;;;;;;;;;;;;;;;;;;5008090;28;19925;-68
2023/12/21 04:17:08;;;;;;;;;;;;;;;;;;5008747;28;19985;-67
2023/12/21 04:19:34;;;;;;;;;;;;;;;;;;5006807;28;19921;-68
2023/12/21 04:21:59;;;;;;;;;;;;;;;;;;5007238;28;19929;-68
2023/12/21 04:24:25;;;;;;;;;;;;;;;;;;5009600;28;20323;-67
2023/12/21 04:26:51;;;;;;;;;;;;;;;;;;5015798;28;19925;-69
2023/12/21 04:29:17;;;;;;;;;;;;;;;;;;5007814;28;19921;-68
2023/12/21 04:31:44;;;;;;;;;;;;;;;;;;5009120;28;19926;-68
2023/12/21 04:34:10;;;;;;;;;;;;;;;;;;5016027;28;19925;-69
2023/12/21 04:36:36;;;;;;;;;;;;;;;;;;5015591;28;19948;-68
2023/12/21 04:39:03;;;;;;;;;;;;;;;;;;5008259;28;19925;-68
2023/12/21 04:41:29;;;;;;;;;;;;;;;;;;5010824;28;19921;-68
2023/12/21 04:43:55;;;;;;;;;;;;;;;;;;5011955;28;19975;-68
2023/12/21 04:46:21;;;;;;;;;;;;;;;;;;5008698;28;19948;-68
2023/12/21 04:48:47;;;;;;;;;;;;;;;;;;5004880;28;19925;-68
2023/12/21 04:51:12;;;;;;;;;;;;;;;;;;5016315;28;20012;-68
2023/12/21 04:53:38;;;;;;;;;;;;;;;;;;5018401;28;20379;-68
2023/12/21 04:56:04;;;;;;;;;;;;;;;;;;5010416;28;19975;-67
2023/12/21 04:58:30;;;;;;;;;;;;;;;;;;5017279;28;19929;-68
2023/12/21 05:00:56;;;;;;;;;;;;;;;;;;5016255;28;19947;-68
2023/12/21 05:03:22;;;;;;;;;;;;;;;;;;5001182;28;19927;-68
2023/12/21 05:05:49;;;;;;;;;;;;;;;;;;5016759;28;20268;-68
2023/12/21 05:08:15;;;;;;;;;;;;;;;;;;5007893;28;19975;-69
2023/12/21 05:10:41;;;;;;;;;;;;;;;;;;4991409;28;19988;-69
2023/12/21 05:13:07;;;;;;;;;;;;;;;;;;4989803;28;19922;-68
2023/12/21 05:15:32;;;;;;;;;;;;;;;;;;5011010;28;19937;-69
2023/12/21 05:17:58;;;;;;;;;;;;;;;;;;5004805;28;19943;-66
2023/12/21 05:20:24;;;;;;;;;;;;;;;;;;5004956;28;19929;-67
2023/12/21 05:22:50;;;;;;;;;;;;;;;;;;5003377;28;19922;-68
2023/12/21 05:25:16;;;;;;;;;;;;;;;;;;5009344;28;19948;-68
2023/12/21 05:27:42;;;;;;;;;;;;;;;;;;5007787;28;19975;-68
2023/12/21 05:30:08;;;;;;;;;;;;;;;;;;5006179;28;19922;-68
2023/12/21 05:32:34;;;;;;;;;;;;;;;;;;5005231;28;19921;-68
2023/12/21 05:35:00;;;;;;;;;;;;;;;;;;5005338;28;20425;-68
2023/12/21 05:37:26;;;;;;;;;;;;;;;;;;5004892;28;19926;-68
2023/12/21 05:39:52;;;;;;;;;;;;;;;;;;4984810;28;19933;-68
2023/12/21 05:42:18;;;;;;;;;;;;;;;;;;5006946;28;19921;-68
2023/12/21 05:44:44;;;;;;;;;;;;;;;;;;5005327;28;19948;-68
2023/12/21 05:47:10;;;;;;;;;;;;;;;;;;5006202;28;20372;-69
2023/12/21 05:49:35;;;;;;;;;;;;;;;;;;5004845;28;19930;-69
2023/12/21 05:52:01;;;;;;;;;;;;;;;;;;5006550;28;19928;-69
2023/12/21 05:54:29;;;;;;;;;;;;;;;;;;4982283;28;19925;-69
2023/12/21 05:56:55;;;;;;;;;;;;;;;;;;5001742;28;19988;-69
2023/12/21 05:59:21;;;;;;;;;;;;;;;;;;4989865;28;19949;-69
2023/12/21 06:01:47;;;;;;;;;;;;;;;;;;5006603;28;19922;-69
2023/12/21 06:04:14;;;;;;;;;;;;;;;;;;5000491;28;20621;-69
2023/12/21 06:06:40;;;;;;;;;;;;;;;;;;5005149;28;19928;-69
2023/12/21 06:09:07;;;;;;;;;;;;;;;;;;5002412;28;19925;-68
2023/12/21 06:11:33;;;;;;;;;;;;;;;;;;5010085;28;19925;-69
2023/12/21 06:13:59;;;;;;;;;;;;;;;;;;5009081;28;19922;-68
2023/12/21 06:16:25;;;;;;;;;;;;;;;;;;5007130;28;19932;-69
2023/12/21 06:18:51;;;;;;;;;;;;;;;;;;5007604;28;20291;-69
2023/12/21 06:21:17;;;;;;;;;;;;;;;;;;5027742;28;19972;-68
2023/12/21 06:23:42;;;;;;;;;;;;;;;;;;5009251;28;19921;-68
2023/12/21 06:26:08;;;;;;;;;;;;;;;;;;5008780;28;19952;-69
2023/12/21 06:28:34;;;;;;;;;;;;;;;;;;5007051;28;20315;-68
2023/12/21 06:31:00;;;;;;;;;;;;;;;;;;5008345;28;19976;-68
2023/12/21 06:33:26;;;;;;;;;;;;;;;;;;5011736;28;19922;-68
2023/12/21 06:35:52;;;;;;;;;;;;;;;;;;5005633;28;19925;-68
2023/12/21 06:38:18;;;;;;;;;;;;;;;;;;5006176;28;19933;-68
2023/12/21 06:40:44;;;;;;;;;;;;;;;;;;5008526;28;20453;-68
2023/12/21 06:43:10;;;;;;;;;;;;;;;;;;5010858;28;19925;-68
2023/12/21 06:45:36;;;;;;;;;;;;;;;;;;5006438;28;19922;-68
2023/12/21 06:48:02;;;;;;;;;;;;;;;;;;5007233;28;20287;-68
2023/12/21 06:50:28;;;;;;;;;;;;;;;;;;5004746;28;19922;-68
2023/12/21 06:52:54;;;;;;;;;;;;;;;;;;5011781;28;20256;-68
2023/12/21 06:55:21;;;;;;;;;;;;;;;;;;5008534;28;20596;-68
2023/12/21 06:57:46;;;;;;;;;;;;;;;;;;5011426;28;19929;-68
2023/12/21 07:00:12;;;;;;;;;;;;;;;;;;5009189;28;19929;-68
2023/12/21 07:02:38;;;;;;;;;;;;;;;;;;5013143;28;19979;-68
2023/12/21 07:05:04;;;;;;;;;;;;;;;;;;5013202;28;20356;-68
2023/12/21 07:07:30;;;;;;;;;;;;;;;;;;5011301;28;19933;-68
2023/12/21 07:09:56;;;;;;;;;;;;;;;;;;5007705;28;19929;-68
2023/12/21 07:12:24;;;;;;;;;;;;;;;;;;5009737;28;19925;-69
2023/12/21 07:14:50;;;;;;;;;;;;;;;;;;5007005;28;20351;-66
2023/12/21 07:17:16;;;;;;;;;;;;;;;;;;5009625;28;20036;-67
2023/12/21 07:19:42;;;;;;;;;;;;;;;;;;5008323;28;19925;-68
2023/12/21 07:22:08;;;;;;;;;;;;;;;;;;5008345;28;19964;-68
2023/12/21 07:24:34;;;;;;;;;;;;;;;;;;5008878;28;19926;-68
2023/12/21 07:27:00;;;;;;;;;;;;;;;;;;5006657;28;19930;-68
2023/12/21 07:29:26;;;;;;;;;;;;;;;;;;5008037;28;19929;-68
2023/12/21 07:31:52;;;;;;;;;;;;;;;;;;5005323;28;20405;-68
2023/12/21 07:34:18;;;;;;;;;;;;;;;;;;5001873;28;19928;-68
2023/12/21 07:36:44;;;;;;;;;;;;;;;;;;5009366;28;19928;-68
2023/12/21 07:39:11;;;;;;;;;;;;;;;;;;5009872;28;19925;-68
2023/12/21 07:41:37;;;;;;;;;;;;;;;;;;5010537;28;19922;-68
2023/12/21 07:44:03;;;;;;;;;;;;;;;;;;5008411;28;19932;-66
2023/12/21 07:46:29;;;;;;;;;;;;;;;;;;5004976;28;19925;-67
2023/12/21 07:48:55;;;;;;;;;;;;;;;;;;5004838;28;20019;-68
2023/12/21 07:51:21;;;;;;;;;;;;;;;;;;5004627;28;20571;-68
2023/12/21 07:53:47;;;;;;;;;;;;;;;;;;5005303;28;20020;-68
2023/12/21 07:56:13;;;;;;;;;;;;;;;;;;5000947;28;19933;-68
2023/12/21 07:58:39;;;;;;;;;;;;;;;;;;4999632;28;19933;-68
2023/12/21 08:01:05;;;;;;;;;;;;;;;;;;5005117;28;19928;-68
2023/12/21 08:03:31;;;;;;;;;;;;;;;;;;5009581;28;19940;-68
2023/12/21 08:05:57;;;;;;;;;;;;;;;;;;5000219;28;19929;-69
2023/12/21 08:08:22;;;;;;;;;;;;;;;;;;4999769;28;20138;-68
2023/12/21 08:10:50;;;;;;;;;;;;;;;;;;5012562;28;19956;-66
2023/12/21 08:13:16;;;;;;;;;;;;;;;;;;5006279;28;19925;-67
2023/12/21 08:15:41;;;;;;;;;;;;;;;;;;5002846;28;19926;-67
2023/12/21 08:18:08;;;;;;;;;;;;;;;;;;5011312;28;19921;-67
2023/12/21 08:20:36;;;;;;;;;;;;;;;;;;5003333;28;19929;-68
2023/12/21 08:23:03;;;;;;;;;;;;;;;;;;5016773;28;19925;-68
2023/12/21 08:25:29;;;;;;;;;;;;;;;;;;5011497;28;19957;-69
2023/12/21 08:27:55;;;;;;;;;;;;;;;;;;5010755;28;19971;-68
2023/12/21 08:30:20;;;;;;;;;;;;;;;;;;5007891;28;20346;-69
2023/12/21 08:32:46;;;;;;;;;;;;;;;;;;5003201;28;19976;-69
2023/12/21 08:35:12;;;;;;;;;;;;;;;;;;5005938;28;19940;-68
2023/12/21 08:37:38;;;;;;;;;;;;;;;;;;5011061;28;19928;-68
2023/12/21 08:40:04;;;;;;;;;;;;;;;;;;5002936;28;19925;-68
2023/12/21 08:42:30;;;;;;;;;;;;;;;;;;5004420;28;20379;-68
2023/12/21 08:44:59;;;;;;;;;;;;;;;;;;5009163;28;19925;-68
2023/12/21 08:47:25;;;;;;;;;;;;;;;;;;5005221;28;19921;-68
2023/12/21 08:49:51;;;;;;;;;;;;;;;;;;5006757;28;20012;-69
2023/12/21 08:52:17;;;;;;;;;;;;;;;;;;5006545;28;19967;-69
2023/12/21 08:54:43;;;;;;;;;;;;;;;;;;5006101;28;19929;-68
2023/12/21 08:57:09;;;;;;;;;;;;;;;;;;5004788;28;19929;-68
2023/12/21 08:59:35;;;;;;;;;;;;;;;;;;4989990;28;19987;-68
2023/12/21 09:02:01;;;;;;;;;;;;;;;;;;5006470;28;19921;-68
2023/12/21 09:04:27;;;;;;;;;;;;;;;;;;5007609;28;20289;-68
2023/12/21 09:06:53;;;;;;;;;;;;;;;;;;5008700;28;20161;-68
2023/12/21 09:09:18;;;;;;;;;;;;;;;;;;5003867;28;19921;-68
2023/12/21 09:11:44;;;;;;;;;;;;;;;;;;5000562;28;19937;-68
2023/12/21 09:14:10;;;;;;;;;;;;;;;;;;5004074;28;20568;-67
2023/12/21 09:16:36;;;;;;;;;;;;;;;;;;5008518;28;20001;-68
2023/12/21 09:19:03;;;;;;;;;;;;;;;;;;5007851;28;19921;-68
2023/12/21 09:21:28;;;;;;;;;;;;;;;;;;5020473;28;19921;-67
2023/12/21 09:23:58;;;;;;;;;;;;;;;;;;5007703;28;19972;-68
2023/12/21 09:26:25;;;;;;;;;;;;;;;;;;5003204;28;19960;-68
2023/12/21 09:28:53;;;;;;;;;;;;;;;;;;5005181;28;19948;-68
2023/12/21 09:31:21;;;;;;;;;;;;;;;;;;5005810;28;20551;-68
2023/12/21 09:33:47;;;;;;;;;;;;;;;;;;5000116;28;19921;-68
2023/12/21 09:36:13;;;;;;;;;;;;;;;;;;5011596;28;20614;-68
2023/12/21 09:38:39;;;;;;;;;;;;;;;;;;5004044;28;20453;-68
2023/12/21 09:41:07;;;;;;;;;;;;;;;;;;5006394;28;19921;-68
2023/12/21 09:43:33;;;;;;;;;;;;;;;;;;4996073;28;19922;-69
2023/12/21 09:45:59;;;;;;;;;;;;;;;;;;5008256;28;19928;-69
2023/12/21 09:48:25;;;;;;;;;;;;;;;;;;5009450;28;20437;-68
2023/12/21 09:50:51;;;;;;;;;;;;;;;;;;5018036;28;20387;-69
2023/12/21 09:53:18;;;;;;;;;;;;;;;;;;5020326;28;19921;-69
2023/12/21 09:55:44;;;;;;;;;;;;;;;;;;5019252;28;20017;-68
2023/12/21 09:58:11;;;;;;;;;;;;;;;;;;5020074;28;20016;-69
2023/12/21 10:00:37;;;;;;;;;;;;;;;;;;5015621;28;19921;-69
2023/12/21 10:03:04;;;;;;;;;;;;;;;;;;4990680;28;20556;-69
2023/12/21 10:05:29;;;;;;;;;;;;;;;;;;5003016;28;20004;-70
2023/12/21 10:07:55;;;;;;;;;;;;;;;;;;5021981;28;20320;-69
2023/12/21 10:10:21;;;;;;;;;;;;;;;;;;5025481;28;20036;-68
2023/12/21 10:12:47;;;;;;;;;;;;;;;;;;5022120;28;19999;-69
2023/12/21 10:15:13;;;;;;;;;;;;;;;;;;5000680;28;19949;-69
2023/12/21 10:17:39;;;;;;;;;;;;;;;;;;5011265;28;19952;-69
2023/12/21 10:20:05;;;;;;;;;;;;;;;;;;5009744;28;20498;-69
2023/12/21 10:22:31;;;;;;;;;;;;;;;;;;5017530;28;19925;-69
2023/12/21 10:24:57;;;;;;;;;;;;;;;;;;5010346;28;19926;-69
2023/12/21 10:27:25;;;;;;;;;;;;;;;;;;5027449;28;20305;-69
2023/12/21 10:29:52;;;;;;;;;;;;;;;;;;5005479;28;19925;-69
2023/12/21 10:32:18;;;;;;;;;;;;;;;;;;5005661;28;19925;-69
2023/12/21 10:34:43;;;;;;;;;;;;;;;;;;5007570;28;19925;-69
2023/12/21 10:37:09;;;;;;;;;;;;;;;;;;5003960;28;19999;-69
2023/12/21 10:39:35;;;;;;;;;;;;;;;;;;5008884;28;19922;-69
2023/12/21 10:42:02;;;;;;;;;;;;;;;;;;5009733;28;20024;-69
2023/12/21 10:44:28;;;;;;;;;;;;;;;;;;5008583;28;19991;-70
2023/12/21 10:46:54;;;;;;;;;;;;;;;;;;5011686;28;20379;-69
2023/12/21 10:49:20;;;;;;;;;;;;;;;;;;5005636;28;19961;-69
2023/12/21 10:51:46;;;;;;;;;;;;;;;;;;5012010;28;19925;-69
2023/12/21 10:54:16;;;;;;;;;;;;;;;;;;5010593;28;20260;-69
2023/12/21 10:56:42;;;;;;;;;;;;;;;;;;5008949;28;19929;-66
2023/12/21 10:59:08;;;;;;;;;;;;;;;;;;5008313;28;19921;-68
2023/12/21 11:01:34;;;;;;;;;;;;;;;;;;5008472;28;19976;-68
2023/12/21 11:04:00;;;;;;;;;;;;;;;;;;5009472;28;19965;-68
2023/12/21 11:06:26;;;;;;;;;;;;;;;;;;5008883;28;19964;-69
2023/12/21 11:08:54;;;;;;;;;;;;;;;;;;5009252;28;20283;-69
2023/12/21 11:11:22;;;;;;;;;;;;;;;;;;5009924;28;20382;-69
2023/12/21 11:13:52;;;;;;;;;;;;;;;;;;5010272;28;19921;-69
2023/12/21 11:16:18;;;;;;;;;;;;;;;;;;5003650;28;19932;-67
2023/12/21 11:18:44;;;;;;;;;;;;;;;;;;5009163;28;20351;-68
2023/12/21 11:21:10;;;;;;;;;;;;;;;;;;5008930;28;19922;-69
2023/12/21 11:23:36;;;;;;;;;;;;;;;;;;5010511;28;19925;-69
2023/12/21 11:26:04;;;;;;;;;;;;;;;;;;5012947;28;19929;-70
2023/12/21 11:28:32;;;;;;;;;;;;;;;;;;5002464;28;19926;-69
2023/12/21 11:30:58;;;;;;;;;;;;;;;;;;5009876;28;19953;-69
2023/12/21 11:33:24;;;;;;;;;;;;;;;;;;5010166;28;20383;-69
2023/12/21 11:35:50;;;;;;;;;;;;;;;;;;5010394;28;19972;-70
2023/12/21 11:38:15;;;;;;;;;;;;;;;;;;5010386;28;19921;-69
2023/12/21 11:40:42;;;;;;;;;;;;;;;;;;5004913;28;19941;-68
2023/12/21 11:43:08;;;;;;;;;;;;;;;;;;5007360;28;19926;-69
2023/12/21 11:45:37;;;;;;;;;;;;;;;;;;5010775;28;19922;-68
2023/12/21 11:48:04;;;;;;;;;;;;;;;;;;5007151;28;19922;-70
2023/12/21 11:50:31;;;;;;;;;;;;;;;;;;5001974;28;19936;-69
2023/12/21 11:52:56;;;;;;;;;;;;;;;;;;5001885;28;19922;-69
2023/12/21 11:55:22;;;;;;;;;;;;;;;;;;5006686;28;19929;-69
2023/12/21 11:57:48;;;;;;;;;;;;;;;;;;5000556;28;19930;-70
2023/12/21 12:00:16;;;;;;;;;;;;;;;;;;5006530;28;20288;-69
2023/12/21 12:02:44;;;;;;;;;;;;;;;;;;5007421;28;19925;-70
2023/12/21 12:05:10;;;;;;;;;;;;;;;;;;5008533;28;19991;-70
2023/12/21 12:07:36;;;;;;;;;;;;;;;;;;5012021;28;19921;-70
2023/12/21 12:10:02;;;;;;;;;;;;;;;;;;5001856;28;19933;-70
2023/12/21 12:12:28;;;;;;;;;;;;;;;;;;5008275;28;19929;-70
2023/12/21 12:14:54;;;;;;;;;;;;;;;;;;5009507;28;20377;-70
2023/12/21 12:17:20;;;;;;;;;;;;;;;;;;5008046;28;19930;-69
2023/12/21 12:19:46;;;;;;;;;;;;;;;;;;5010439;28;20283;-69
2023/12/21 12:22:12;;;;;;;;;;;;;;;;;;5012126;28;19921;-69
2023/12/21 12:24:39;;;;;;;;;;;;;;;;;;5008261;28;19929;-70
2023/12/21 12:27:05;;;;;;;;;;;;;;;;;;4999807;22;20014;-72
2023/12/21 12:29:31;;;;;;;;;;;;;;;;;;4947809;28;19982;-72
2023/12/21 12:31:57;;;;;;;;;;;;;;;;;;4950390;28;19929;-72
2023/12/21 12:34:23;;;;;;;;;;;;;;;;;;4965595;28;20303;-71
2023/12/21 12:36:49;;;;;;;;;;;;;;;;;;4946889;28;19973;-70
2023/12/21 12:39:15;;;;;;;;;;;;;;;;;;4969751;28;19961;-71
2023/12/21 12:41:41;;;;;;;;;;;;;;;;;;4965361;28;20391;-70
2023/12/21 12:44:07;;;;;;;;;;;;;;;;;;4954305;28;19972;-71
2023/12/21 12:46:33;;;;;;;;;;;;;;;;;;4956058;28;19922;-72
2023/12/21 12:48:59;;;;;;;;;;;;;;;;;;4957557;28;19926;-71
2023/12/21 12:51:25;;;;;;;;;;;;;;;;;;4953129;28;19933;-72
2023/12/21 12:53:51;;;;;;;;;;;;;;;;;;4972614;28;19922;-71
2023/12/21 12:56:17;;;;;;;;;;;;;;;;;;4955036;28;19922;-71
2023/12/21 12:58:43;;;;;;;;;;;;;;;;;;4953146;28;20063;-72
2023/12/21 13:01:09;;;;;;;;;;;;;;;;;;4953811;28;20327;-72
2023/12/21 13:03:35;;;;;;;;;;;;;;;;;;4955058;28;19922;-72
2023/12/21 13:06:01;;;;;;;;;;;;;;;;;;4956011;28;20288;-72
2023/12/21 13:08:28;;;;;;;;;;;;;;;;;;4955460;28;19926;-72
2023/12/21 13:10:54;;;;;;;;;;;;;;;;;;4971461;28;20328;-72
2023/12/21 13:13:19;;;;;;;;;;;;;;;;;;4965991;28;19922;-70
2023/12/21 13:15:45;;;;;;;;;;;;;;;;;;4951386;28;20398;-71
2023/12/21 13:18:11;;;;;;;;;;;;;;;;;;4967817;28;20335;-71
2023/12/21 13:20:37;;;;;;;;;;;;;;;;;;4952309;28;19922;-71
2023/12/21 13:23:03;;;;;;;;;;;;;;;;;;4954736;28;19926;-71
2023/12/21 13:25:29;;;;;;;;;;;;;;;;;;4956686;28;19972;-73
2023/12/21 13:27:55;;;;;;;;;;;;;;;;;;4949715;28;19992;-72
2023/12/21 13:30:23;;;;;;;;;;;;;;;;;;4970904;28;20376;-72
2023/12/21 13:32:49;;;;;;;;;;;;;;;;;;4965865;28;19945;-72
2023/12/21 13:35:16;;;;;;;;;;;;;;;;;;4971254;28;20379;-72
2023/12/21 13:37:46;;;;;;;;;;;;;;;;;;4969463;28;19930;-72
2023/12/21 13:40:12;;;;;;;;;;;;;;;;;;4972273;28;19922;-72
2023/12/21 13:42:39;;;;;;;;;;;;;;;;;;4970629;28;19926;-72
2023/12/21 13:45:05;;;;;;;;;;;;;;;;;;4974749;28;19926;-72
2023/12/21 13:47:34;;;;;;;;;;;;;;;;;;4960869;28;20420;-72
2023/12/21 13:49:59;;;;;;;;;;;;;;;;;;4969277;28;19930;-72
2023/12/21 13:52:25;;;;;;;;;;;;;;;;;;4973056;28;19922;-70
2023/12/21 13:54:51;;;;;;;;;;;;;;;;;;4977446;28;19922;-71
2023/12/21 13:57:18;;;;;;;;;;;;;;;;;;4981838;28;19932;-71
2023/12/21 13:59:44;;;;;;;;;;;;;;;;;;4948682;28;19930;-71
2023/12/21 14:02:09;;;;;;;;;;;;;;;;;;4944734;28;19929;-71
2023/12/21 14:04:35;;;;;;;;;;;;;;;;;;4966744;28;20005;-71
2023/12/21 14:07:01;;;;;;;;;;;;;;;;;;4968097;28;20275;-70
2023/12/21 14:09:28;;;;;;;;;;;;;;;;;;4964674;28;19922;-71
2023/12/21 14:11:53;;;;;;;;;;;;;;;;;;4965939;28;19934;-71
2023/12/21 14:14:19;;;;;;;;;;;;;;;;;;4964115;28;20384;-71
2023/12/21 14:16:45;;;;;;;;;;;;;;;;;;4979985;28;19922;-71
2023/12/21 14:19:11;;;;;;;;;;;;;;;;;;4959232;28;19932;-71
2023/12/21 14:21:37;;;;;;;;;;;;;;;;;;4941301;28;19922;-71
2023/12/21 14:24:03;;;;;;;;;;;;;;;;;;4953822;28;19926;-72
2023/12/21 14:26:29;;;;;;;;;;;;;;;;;;4967632;28;19937;-72
2023/12/21 14:28:55;;;;;;;;;;;;;;;;;;4962893;28;20414;-71
2023/12/21 14:31:21;;;;;;;;;;;;;;;;;;4960952;28;19922;-72
2023/12/21 14:33:47;;;;;;;;;;;;;;;;;;4968045;28;19927;-72
2023/12/21 14:36:13;;;;;;;;;;;;;;;;;;4960472;28;19922;-71
2023/12/21 14:38:39;;;;;;;;;;;;;;;;;;4953090;28;19926;-71
2023/12/21 14:41:05;;;;;;;;;;;;;;;;;;4970203;28;19926;-72
2023/12/21 14:43:32;;;;;;;;;;;;;;;;;;4972142;28;19957;-71
2023/12/21 14:45:58;;;;;;;;;;;;;;;;;;4964808;28;20001;-72
2023/12/21 14:48:24;;;;;;;;;;;;;;;;;;4967925;28;20000;-73
2023/12/21 14:50:50;;;;;;;;;;;;;;;;;;4964765;28;20707;-73
2023/12/21 14:53:16;;;;;;;;;;;;;;;;;;4968940;28;19933;-73
2023/12/21 14:55:42;;;;;;;;;;;;;;;;;;4953615;28;20681;-72
2023/12/21 14:58:08;;;;;;;;;;;;;;;;;;4949859;28;19958;-73
2023/12/21 15:00:34;;;;;;;;;;;;;;;;;;4958986;28;20000;-73
2023/12/21 15:03:00;;;;;;;;;;;;;;;;;;4942627;28;19966;-72
2023/12/21 15:05:26;;;;;;;;;;;;;;;;;;4967521;28;20067;-71
2023/12/21 15:07:52;;;;;;;;;;;;;;;;;;4950892;28;20299;-72
2023/12/21 15:10:18;;;;;;;;;;;;;;;;;;4949122;28;19922;-71
2023/12/21 15:12:44;;;;;;;;;;;;;;;;;;4951407;28;19930;-71
2023/12/21 15:15:10;;;;;;;;;;;;;;;;;;4950429;28;19945;-71
2023/12/21 15:17:36;;;;;;;;;;;;;;;;;;4952245;28;19931;-71
2023/12/21 15:20:03;;;;;;;;;;;;;;;;;;4950519;28;19926;-71
2023/12/21 15:22:29;;;;;;;;;;;;;;;;;;4951769;28;19933;-72
2023/12/21 15:24:55;;;;;;;;;;;;;;;;;;4949920;28;19922;-71
2023/12/21 15:27:21;;;;;;;;;;;;;;;;;;4969303;28;19948;-72
2023/12/21 15:29:47;;;;;;;;;;;;;;;;;;4953415;28;19937;-71
2023/12/21 15:32:13;;;;;;;;;;;;;;;;;;4950480;28;19930;-71
2023/12/21 15:34:39;;;;;;;;;;;;;;;;;;4970569;28;19944;-71
2023/12/21 15:37:06;;;;;;;;;;;;;;;;;;4931711;28;20463;-71
2023/12/21 15:39:32;;;;;;;;;;;;;;;;;;4947892;28;19930;-71
2023/12/21 15:41:58;;;;;;;;;;;;;;;;;;4949359;28;19933;-71
2023/12/21 15:44:24;;;;;;;;;;;;;;;;;;4952898;28;20328;-71
2023/12/21 15:46:50;;;;;;;;;;;;;;;;;;4927837;28;20013;-72
2023/12/21 15:49:16;;;;;;;;;;;;;;;;;;4955621;28;19934;-72
2023/12/21 15:51:42;;;;;;;;;;;;;;;;;;4947680;28;19926;-72
2023/12/21 15:54:13;;;;;;;;;;;;;;;;;;4951475;28;19960;-71
2023/12/21 15:56:39;;;;;;;;;;;;;;;;;;4949038;28;19992;-71
2023/12/21 15:59:05;;;;;;;;;;;;;;;;;;4935131;28;20446;-72
2023/12/21 16:01:31;;;;;;;;;;;;;;;;;;4953861;28;20072;-72
2023/12/21 16:03:57;;;;;;;;;;;;;;;;;;4940232;28;19972;-71
2023/12/21 16:06:23;;;;;;;;;;;;;;;;;;4950477;28;19926;-72
2023/12/21 16:08:50;;;;;;;;;;;;;;;;;;4949253;28;19965;-71
2023/12/21 16:11:16;;;;;;;;;;;;;;;;;;4939855;28;20060;-71
2023/12/21 16:13:41;;;;;;;;;;;;;;;;;;4949552;28;19926;-71
2023/12/21 16:16:07;;;;;;;;;;;;;;;;;;4956242;28;19926;-71
2023/12/21 16:18:33;;;;;;;;;;;;;;;;;;4944895;28;20269;-72
2023/12/21 16:21:00;;;;;;;;;;;;;;;;;;4953180;28;19926;-71
2023/12/21 16:23:26;;;;;;;;;;;;;;;;;;4937299;28;20152;-71
2023/12/21 16:25:52;;;;;;;;;;;;;;;;;;4938708;28;19930;-71
2023/12/21 16:28:18;;;;;;;;;;;;;;;;;;4922493;29;19931;-71
2023/12/21 16:30:44;;;;;;;;;;;;;;;;;;4912650;29;20296;-70
2023/12/21 16:33:10;;;;;;;;;;;;;;;;;;4927666;29;19931;-72
2023/12/21 16:35:36;;;;;;;;;;;;;;;;;;4924948;29;19931;-72
2023/12/21 16:38:03;;;;;;;;;;;;;;;;;;4912501;29;24058;-71